Horizon — WDH3298 — position and weather

sailwx.info

Track history (hours):
 
Tides and Currents Weather Stations Pressure Air Temp Water Temp Dewpoint Dewpoint Depression Visibility Wind Speed Wind Dir Waves Ship Positions

Horizon

Owner: Horizon Charters Inc., San Diego, CA. More information available from US FCC via Universal Licensing System and Coast Guard Vessel Documentation Center.

Last reported at 2017-Nov-15 01:54 UTC. Time now 2017-Nov-21 17:45 UTC.
Position N 32°40' W 117°21'.

Length 22 m.

Type: Diving. MMSI: 338776000.

Date/timePositionNaut miles runAvg speedWind from/ knotsBaromVisibWave heightAir tempDewpointWater temp
2017-Nov-15 01:54N 32°40' W 117°21'411.0
2017-Nov-15 01:30N 32°44' W 117°24'611.6
2017-Nov-15 01:00N 32°48' W 117°29'611.5
2017-Nov-15 00:30N 32°52' W 117°34'611.4
2017-Nov-15 00:00N 32°55' W 117°39'611.2
2017-Nov-14 23:30N 32°59' W 117°44'611.2
2017-Nov-14 23:00N 33°02' W 117°50'1311.2
2017-Nov-14 21:51N 33°11' W 118°02'411.2
2017-Nov-14 21:30N 33°13' W 118°05'511.0
2017-Nov-14 21:00N 33°16' W 118°10'611.1
2017-Nov-14 20:30N 33°20' W 118°15'611.1
2017-Nov-14 20:00N 33°23' W 118°20'3 5.8
2017-Nov-14 19:30N 33°25' W 118°23'0 0.1
2017-Nov-14 19:00N 33°25' W 118°23'0 0.1
2017-Nov-14 18:30N 33°25' W 118°23'0 0.1
2017-Nov-14 18:00N 33°25' W 118°23'2 3.5
2017-Nov-14 17:30N 33°26' W 118°25'4 7.9
2017-Nov-14 17:00N 33°28' W 118°30'0 0.1
2017-Nov-14 16:29N 33°28' W 118°30'0 0.0
2017-Nov-14 16:00N 33°28' W 118°30'0 0.0
2017-Nov-14 15:30N 33°28' W 118°30'0 0.0
2017-Nov-14 15:00N 33°28' W 118°30'0 0.0
2017-Nov-14 14:30N 33°28' W 118°30'2 3.4
2017-Nov-14 14:00N 33°28' W 118°32'0 0.0
2017-Nov-14 13:30N 33°28' W 118°32'0 0.0
2017-Nov-14 13:00N 33°28' W 118°32'0 0.0
2017-Nov-14 12:30N 33°28' W 118°32'0 0.0
2017-Nov-14 11:59N 33°28' W 118°32'0 0.0
2017-Nov-14 11:30N 33°28' W 118°32'0 0.0
2017-Nov-14 11:00N 33°28' W 118°32'0 0.0
2017-Nov-14 10:30N 33°28' W 118°32'0 0.1
2017-Nov-14 10:00N 33°28' W 118°32'0 0.1
2017-Nov-14 09:30N 33°28' W 118°32'0 0.0
2017-Nov-14 09:00N 33°28' W 118°32'0 0.0
2017-Nov-14 08:30N 33°28' W 118°32'0 0.0
2017-Nov-14 07:37N 33°28' W 118°32'0 0.1
2017-Nov-14 07:30N 33°28' W 118°32'0 0.0
2017-Nov-14 07:00N 33°28' W 118°32'0 0.0
2017-Nov-14 06:30N 33°28' W 118°32'0 0.0
2017-Nov-14 06:00N 33°28' W 118°32'0 0.0
2017-Nov-14 05:30N 33°28' W 118°32'0 0.2
2017-Nov-14 05:00N 33°28' W 118°32'0 0.0
2017-Nov-14 04:30N 33°28' W 118°32'0 0.0
2017-Nov-14 04:00N 33°28' W 118°32'0 0.1
2017-Nov-14 03:30N 33°28' W 118°32'3 6.1
2017-Nov-14 03:00N 33°30' W 118°35'5 9.8
2017-Nov-14 02:30N 33°30' W 118°41'5 9.8
2017-Nov-14 02:00N 33°30' W 118°47'5 9.8
2017-Nov-14 01:30N 33°29' W 118°52'510.1
2017-Nov-14 01:00N 33°28' W 118°58'49 2.1
2017-Nov-13 01:51N 32°50' W 118°22'0 0.0
2017-Nov-13 01:22N 32°50' W 118°22'1 2.2
2017-Nov-13 01:00N 32°50' W 118°22'0 0.9
2017-Nov-13 00:26N 32°51' W 118°23'0 0.1
2017-Nov-12 23:56N 32°51' W 118°23'0 0.0
2017-Nov-12 23:30N 32°51' W 118°23'0 0.0
2017-Nov-12 23:00N 32°51' W 118°23'0 0.9
2017-Nov-12 22:30N 32°50' W 118°22'2 3.6
2017-Nov-12 22:00N 32°49' W 118°21'1 0.2
2017-Nov-12 17:31N 32°49' W 118°20'010.4
2017-Nov-12 17:30N 32°49' W 118°20'810.6
2017-Nov-12 16:43N 32°48' W 118°10'310.5
2017-Nov-12 16:25N 32°48' W 118°06'1110.6
2017-Nov-12 15:23N 32°45' W 117°54'410.9
2017-Nov-12 15:00N 32°44' W 117°49'611.1
2017-Nov-12 14:29N 32°43' W 117°42'511.1
2017-Nov-12 14:00N 32°42' W 117°36'511.1
2017-Nov-12 13:30N 32°41' W 117°29'510.9
2017-Nov-12 13:01N 32°39' W 117°23'510.8
2017-Nov-12 12:30N 32°38' W 117°17'3 3.0
2017-Nov-12 11:20N 32°41' W 117°14'3 8.1
2017-Nov-12 11:00N 32°38' W 117°15'510.6
2017-Nov-12 10:30N 32°40' W 117°21'510.3
2017-Nov-12 10:00N 32°41' W 117°27'510.3
2017-Nov-12 09:30N 32°42' W 117°33'510.4
2017-Nov-12 09:00N 32°43' W 117°39'510.4
2017-Nov-12 08:30N 32°45' W 117°45'910.4
2017-Nov-12 07:39N 32°47' W 117°56'110.0
2017-Nov-12 07:30N 32°47' W 117°57'610.5
2017-Nov-12 06:57N 32°48' W 118°04'510.3
2017-Nov-12 06:29N 32°49' W 118°10'510.3
2017-Nov-12 06:00N 32°50' W 118°15'510.2
2017-Nov-12 05:29N 32°51' W 118°22'1 2.2
2017-Nov-12 04:55N 32°51' W 118°23'0 0.0
2017-Nov-12 03:57N 32°51' W 118°23'0 0.0
2017-Nov-12 03:30N 32°51' W 118°23'0 0.0
2017-Nov-12 02:59N 32°51' W 118°23'0 0.0
2017-Nov-12 02:30N 32°51' W 118°23'0 0.0
2017-Nov-12 02:00N 32°51' W 118°23'0 0.0
2017-Nov-12 01:30N 32°51' W 118°23'0 0.0
2017-Nov-12 00:58N 32°51' W 118°23'0 0.0
2017-Nov-12 00:30N 32°51' W 118°23'0 0.0
2017-Nov-12 00:00N 32°51' W 118°23'1 1.2
2017-Nov-11 23:28N 32°51' W 118°22'1 2.0
2017-Nov-11 22:51N 32°50' W 118°22'0 0.0
2017-Nov-11 22:25N 32°50' W 118°22'0 0.0
2017-Nov-11 21:56N 32°50' W 118°22'0 0.0
2017-Nov-11 21:18N 32°50' W 118°22'0 0.0
2017-Nov-11 21:00N 32°50' W 118°22'1 0.2
2017-Nov-11 16:13N 32°51' W 118°22'30 5.2
2017-Nov-11 10:32N 32°44' W 117°48'0 9.3
2017-Nov-11 10:31N 32°43' W 117°48'4 8.2
2017-Nov-11 10:01N 32°43' W 117°43'5 8.2
2017-Nov-11 09:26N 32°42' W 117°38'4 8.0
2017-Nov-11 08:59N 32°41' W 117°33'4 8.5
2017-Nov-11 08:31N 32°40' W 117°29'5 9.1
2017-Nov-11 08:00N 32°39' W 117°23'4 8.9
2017-Nov-11 07:30N 32°38' W 117°18'6 6.0
2017-Nov-11 06:26N 32°43' W 117°14'0 0.0
2017-Nov-11 06:00N 32°43' W 117°14'0 0.0
2017-Nov-11 05:30N 32°43' W 117°14'0 0.0
2017-Nov-11 05:00N 32°43' W 117°14'0 0.0
2017-Nov-11 04:31N 32°43' W 117°14'0 0.0
2017-Nov-11 04:00N 32°43' W 117°14'0 0.0
2017-Nov-11 03:30N 32°43' W 117°14'0 0.0
2017-Nov-11 03:00N 32°43' W 117°14'0 0.0
2017-Nov-11 02:30N 32°43' W 117°14'0 0.0
2017-Nov-09 23:05N 32°43' W 117°14'0 0.0
2017-Nov-09 23:00N 32°43' W 117°14'1 1.0
2017-Nov-09 22:28N 32°43' W 117°13'2 1.8
2017-Nov-09 21:20N 32°41' W 117°14'  
2017-Nov-05 04:52N 32°43' W 117°14'0 0.0
2017-Nov-05 04:27N 32°43' W 117°14'0 0.0
2017-Nov-05 03:57N 32°43' W 117°14'0 0.0
2017-Nov-05 03:27N 32°43' W 117°14'0 0.0
2017-Nov-05 03:01N 32°43' W 117°14'0 0.0
2017-Nov-05 02:30N 32°43' W 117°14'0 0.0
2017-Nov-05 02:00N 32°43' W 117°14'  
Track history (hours):
 
Tides and Currents Weather Stations Pressure Air Temp Water Temp Dewpoint Dewpoint Depression Visibility Wind Speed Wind Dir Waves Ship Positions

Horizon

Owner: Horizon Charters Inc., San Diego, CA. More information available from US FCC via Universal Licensing System and Coast Guard Vessel Documentation Center.

Last reported at 2017-Nov-15 01:54 UTC. Time now 2017-Nov-21 17:45 UTC.
Position N 32°40' W 117°21'.

Length 22 m.

Type: Diving. MMSI: 338776000.

Date/timePositionNaut miles runAvg speedWind from/ knotsBaromVisibWave heightAir tempDewpointWater temp
2017-Nov-15 01:54N 32°40' W 117°21'411.0
2017-Nov-15 01:30N 32°44' W 117°24'611.6
2017-Nov-15 01:00N 32°48' W 117°29'611.5
2017-Nov-15 00:30N 32°52' W 117°34'611.4
2017-Nov-15 00:00N 32°55' W 117°39'611.2
2017-Nov-14 23:30N 32°59' W 117°44'611.2
2017-Nov-14 23:00N 33°02' W 117°50'1311.2
2017-Nov-14 21:51N 33°11' W 118°02'411.2
2017-Nov-14 21:30N 33°13' W 118°05'511.0
2017-Nov-14 21:00N 33°16' W 118°10'611.1
2017-Nov-14 20:30N 33°20' W 118°15'611.1
2017-Nov-14 20:00N 33°23' W 118°20'3 5.8
2017-Nov-14 19:30N 33°25' W 118°23'0 0.1
2017-Nov-14 19:00N 33°25' W 118°23'0 0.1
2017-Nov-14 18:30N 33°25' W 118°23'0 0.1
2017-Nov-14 18:00N 33°25' W 118°23'2 3.5
2017-Nov-14 17:30N 33°26' W 118°25'4 7.9
2017-Nov-14 17:00N 33°28' W 118°30'0 0.1
2017-Nov-14 16:29N 33°28' W 118°30'0 0.0
2017-Nov-14 16:00N 33°28' W 118°30'0 0.0
2017-Nov-14 15:30N 33°28' W 118°30'0 0.0
2017-Nov-14 15:00N 33°28' W 118°30'0 0.0
2017-Nov-14 14:30N 33°28' W 118°30'2 3.4
2017-Nov-14 14:00N 33°28' W 118°32'0 0.0
2017-Nov-14 13:30N 33°28' W 118°32'0 0.0
2017-Nov-14 13:00N 33°28' W 118°32'0 0.0
2017-Nov-14 12:30N 33°28' W 118°32'0 0.0
2017-Nov-14 11:59N 33°28' W 118°32'0 0.0
2017-Nov-14 11:30N 33°28' W 118°32'0 0.0
2017-Nov-14 11:00N 33°28' W 118°32'0 0.0
2017-Nov-14 10:30N 33°28' W 118°32'0 0.1
2017-Nov-14 10:00N 33°28' W 118°32'0 0.1
2017-Nov-14 09:30N 33°28' W 118°32'0 0.0
2017-Nov-14 09:00N 33°28' W 118°32'0 0.0
2017-Nov-14 08:30N 33°28' W 118°32'0 0.0
2017-Nov-14 07:37N 33°28' W 118°32'0 0.1
2017-Nov-14 07:30N 33°28' W 118°32'0 0.0
2017-Nov-14 07:00N 33°28' W 118°32'0 0.0
2017-Nov-14 06:30N 33°28' W 118°32'0 0.0
2017-Nov-14 06:00N 33°28' W 118°32'0 0.0
2017-Nov-14 05:30N 33°28' W 118°32'0 0.2
2017-Nov-14 05:00N 33°28' W 118°32'0 0.0
2017-Nov-14 04:30N 33°28' W 118°32'0 0.0
2017-Nov-14 04:00N 33°28' W 118°32'0 0.1
2017-Nov-14 03:30N 33°28' W 118°32'3 6.1
2017-Nov-14 03:00N 33°30' W 118°35'5 9.8
2017-Nov-14 02:30N 33°30' W 118°41'5 9.8
2017-Nov-14 02:00N 33°30' W 118°47'5 9.8
2017-Nov-14 01:30N 33°29' W 118°52'510.1
2017-Nov-14 01:00N 33°28' W 118°58'49 2.1
2017-Nov-13 01:51N 32°50' W 118°22'0 0.0
2017-Nov-13 01:22N 32°50' W 118°22'1 2.2
2017-Nov-13 01:00N 32°50' W 118°22'0 0.9
2017-Nov-13 00:26N 32°51' W 118°23'0 0.1
2017-Nov-12 23:56N 32°51' W 118°23'0 0.0
2017-Nov-12 23:30N 32°51' W 118°23'0 0.0
2017-Nov-12 23:00N 32°51' W 118°23'0 0.9
2017-Nov-12 22:30N 32°50' W 118°22'2 3.6
2017-Nov-12 22:00N 32°49' W 118°21'1 0.2
2017-Nov-12 17:31N 32°49' W 118°20'010.4
2017-Nov-12 17:30N 32°49' W 118°20'810.6
2017-Nov-12 16:43N 32°48' W 118°10'310.5
2017-Nov-12 16:25N 32°48' W 118°06'1110.6
2017-Nov-12 15:23N 32°45' W 117°54'410.9
2017-Nov-12 15:00N 32°44' W 117°49'611.1
2017-Nov-12 14:29N 32°43' W 117°42'511.1
2017-Nov-12 14:00N 32°42' W 117°36'511.1
2017-Nov-12 13:30N 32°41' W 117°29'510.9
2017-Nov-12 13:01N 32°39' W 117°23'510.8
2017-Nov-12 12:30N 32°38' W 117°17'3 3.0
2017-Nov-12 11:20N 32°41' W 117°14'3 8.1
2017-Nov-12 11:00N 32°38' W 117°15'510.6
2017-Nov-12 10:30N 32°40' W 117°21'510.3
2017-Nov-12 10:00N 32°41' W 117°27'510.3
2017-Nov-12 09:30N 32°42' W 117°33'510.4
2017-Nov-12 09:00N 32°43' W 117°39'510.4
2017-Nov-12 08:30N 32°45' W 117°45'910.4
2017-Nov-12 07:39N 32°47' W 117°56'110.0
2017-Nov-12 07:30N 32°47' W 117°57'610.5
2017-Nov-12 06:57N 32°48' W 118°04'510.3
2017-Nov-12 06:29N 32°49' W 118°10'510.3
2017-Nov-12 06:00N 32°50' W 118°15'510.2
2017-Nov-12 05:29N 32°51' W 118°22'1 2.2
2017-Nov-12 04:55N 32°51' W 118°23'0 0.0
2017-Nov-12 03:57N 32°51' W 118°23'0 0.0
2017-Nov-12 03:30N 32°51' W 118°23'0 0.0
2017-Nov-12 02:59N 32°51' W 118°23'0 0.0
2017-Nov-12 02:30N 32°51' W 118°23'0 0.0
2017-Nov-12 02:00N 32°51' W 118°23'0 0.0
2017-Nov-12 01:30N 32°51' W 118°23'0 0.0
2017-Nov-12 00:58N 32°51' W 118°23'0 0.0
2017-Nov-12 00:30N 32°51' W 118°23'0 0.0
2017-Nov-12 00:00N 32°51' W 118°23'1 1.2
2017-Nov-11 23:28N 32°51' W 118°22'1 2.0
2017-Nov-11 22:51N 32°50' W 118°22'0 0.0
2017-Nov-11 22:25N 32°50' W 118°22'0 0.0
2017-Nov-11 21:56N 32°50' W 118°22'0 0.0
2017-Nov-11 21:18N 32°50' W 118°22'0 0.0
2017-Nov-11 21:00N 32°50' W 118°22'1 0.2
2017-Nov-11 16:13N 32°51' W 118°22'30 5.2
2017-Nov-11 10:32N 32°44' W 117°48'0 9.3
2017-Nov-11 10:31N 32°43' W 117°48'4 8.2
2017-Nov-11 10:01N 32°43' W 117°43'5 8.2
2017-Nov-11 09:26N 32°42' W 117°38'4 8.0
2017-Nov-11 08:59N 32°41' W 117°33'4 8.5
2017-Nov-11 08:31N 32°40' W 117°29'5 9.1
2017-Nov-11 08:00N 32°39' W 117°23'4 8.9
2017-Nov-11 07:30N 32°38' W 117°18'6 6.0
2017-Nov-11 06:26N 32°43' W 117°14'0 0.0
2017-Nov-11 06:00N 32°43' W 117°14'0 0.0
2017-Nov-11 05:30N 32°43' W 117°14'0 0.0
2017-Nov-11 05:00N 32°43' W 117°14'0 0.0
2017-Nov-11 04:31N 32°43' W 117°14'0 0.0
2017-Nov-11 04:00N 32°43' W 117°14'0 0.0
2017-Nov-11 03:30N 32°43' W 117°14'0 0.0
2017-Nov-11 03:00N 32°43' W 117°14'0 0.0
2017-Nov-11 02:30N 32°43' W 117°14'0 0.0
2017-Nov-09 23:05N 32°43' W 117°14'0 0.0
2017-Nov-09 23:00N 32°43' W 117°14'1 1.0
2017-Nov-09 22:28N 32°43' W 117°13'2 1.8
2017-Nov-09 21:20N 32°41' W 117°14'  
2017-Nov-05 04:52N 32°43' W 117°14'0 0.0
2017-Nov-05 04:27N 32°43' W 117°14'0 0.0
2017-Nov-05 03:57N 32°43' W 117°14'0 0.0
2017-Nov-05 03:27N 32°43' W 117°14'0 0.0
2017-Nov-05 03:01N 32°43' W 117°14'0 0.0
2017-Nov-05 02:30N 32°43' W 117°14'0 0.0
2017-Nov-05 02:00N 32°43' W 117°14'  

Dump ship's entire track history